createdAt,value
2022-08-05T00:01:29.153Z,1.20
2022-08-05T00:03:57.522Z,1.30
2022-08-05T00:06:30.684Z,1.30
2022-08-05T00:09:00.366Z,1.15
2022-08-05T00:11:34.515Z,1.45
2022-08-05T00:14:12.755Z,1.27
2022-08-05T00:16:53.732Z,1.45
2022-08-05T00:19:22.464Z,1.40
2022-08-05T00:21:50.383Z,1.42
2022-08-05T00:24:19.258Z,1.40
2022-08-05T00:26:52.934Z,1.23
2022-08-05T00:29:25.776Z,1.20
2022-08-05T00:32:11.134Z,1.30
2022-08-05T00:34:54.362Z,1.33
2022-08-05T00:37:35.563Z,1.33
2022-08-05T00:40:17.589Z,1.45
2022-08-05T00:42:54.358Z,1.60
2022-08-05T00:45:28.350Z,1.50
2022-08-05T00:48:07.593Z,1.58
2022-08-05T00:50:35.200Z,1.55
2022-08-05T00:53:03.282Z,1.55
2022-08-05T00:55:42.923Z,1.50
2022-08-05T00:58:11.803Z,1.45
2022-08-05T01:00:42.244Z,1.60
2022-08-05T01:03:10.633Z,1.80
2022-08-05T01:05:49.942Z,1.50
2022-08-05T01:08:40.259Z,1.40
2022-08-05T01:11:10.597Z,1.50
2022-08-05T01:13:58.585Z,1.55
2022-08-05T01:16:30.913Z,1.85
2022-08-05T01:19:02.117Z,1.40
2022-08-05T01:21:51.969Z,1.73
2022-08-05T01:24:30.161Z,1.60
2022-08-05T01:27:26.986Z,1.63
2022-08-05T01:29:53.582Z,1.48
2022-08-05T01:32:23.531Z,1.77
2022-08-05T01:34:58.072Z,1.70
2022-08-05T01:37:28.959Z,2.08
2022-08-05T01:39:58.816Z,1.65
2022-08-05T01:42:27.773Z,1.60
2022-08-05T01:44:57.181Z,1.55
2022-08-05T01:47:38.863Z,1.83
2022-08-05T01:50:09.197Z,1.60
2022-08-05T01:52:44.171Z,1.95
2022-08-05T01:55:13.287Z,2.15
2022-08-05T01:58:09.365Z,1.90
2022-08-05T02:00:31.147Z,2.00
2022-08-05T02:03:03.703Z,1.80
2022-08-05T02:05:34.264Z,1.85
2022-08-05T02:08:03.689Z,1.75
2022-08-05T02:10:34.769Z,1.98
2022-08-05T02:13:04.817Z,1.92
2022-08-05T02:15:46.376Z,1.75
2022-08-05T02:18:30.791Z,1.95
2022-08-05T02:21:03.162Z,1.77
2022-08-05T02:23:35.659Z,2.00
2022-08-05T02:26:04.293Z,1.90
2022-08-05T02:28:41.455Z,2.05
2022-08-05T02:31:14.637Z,1.55
2022-08-05T02:33:45.256Z,2.22
2022-08-05T02:36:17.770Z,1.88
2022-08-05T02:38:53.230Z,1.90
2022-08-05T02:41:22.956Z,1.75
2022-08-05T02:44:02.679Z,2.10
2022-08-05T02:46:36.554Z,1.80
2022-08-05T02:49:21.902Z,2.00
2022-08-05T02:52:03.067Z,1.70
2022-08-05T02:54:34.997Z,1.65
2022-08-05T02:57:05.216Z,1.60
2022-08-05T02:59:50.200Z,1.90
2022-08-05T03:02:20.820Z,1.60
2022-08-05T03:04:53.224Z,1.95
2022-08-05T03:08:00.409Z,2.10
2022-08-05T03:10:10.129Z,1.85
2022-08-05T03:12:49.480Z,2.30
2022-08-05T03:15:19.591Z,2.00
2022-08-05T03:17:48.718Z,2.00
2022-08-05T03:20:21.937Z,2.00
2022-08-05T03:22:51.292Z,1.48
2022-08-05T03:25:32.462Z,2.28
2022-08-05T03:28:08.971Z,2.05
2022-08-05T03:30:36.654Z,2.50
2022-08-05T03:33:07.612Z,1.80
2022-08-05T03:35:40.550Z,1.85
2022-08-05T03:38:09.439Z,1.77
2022-08-05T03:40:40.665Z,1.85
2022-08-05T03:43:59.219Z,2.08
2022-08-05T03:45:58.561Z,2.00
2022-08-05T03:48:29.238Z,1.90
2022-08-05T03:51:06.932Z,1.85
2022-08-05T03:55:53.611Z,2.00
2022-08-05T03:56:41.168Z,2.10
2022-08-05T03:59:10.946Z,1.90
2022-08-05T04:01:38.953Z,2.08
2022-08-05T04:04:10.099Z,2.08
2022-08-05T04:06:38.562Z,1.98
2022-08-05T04:09:20.270Z,2.13
2022-08-05T04:11:52.383Z,2.17
2022-08-05T04:14:29.994Z,2.10
2022-08-05T04:16:58.694Z,2.35
2022-08-05T04:19:28.387Z,2.45
2022-08-05T04:22:08.236Z,2.20
2022-08-05T04:24:44.198Z,2.30
2022-08-05T04:27:12.311Z,2.10
2022-08-05T04:29:40.038Z,2.13
2022-08-05T04:32:08.110Z,2.22
2022-08-05T04:34:42.942Z,2.10
2022-08-05T04:37:11.121Z,2.47
2022-08-05T04:39:39.215Z,2.15
2022-08-05T04:42:08.103Z,2.40
2022-08-05T04:44:36.727Z,2.70
2022-08-05T04:47:09.580Z,2.30
2022-08-05T04:50:01.793Z,2.40
2022-08-05T04:52:32.569Z,2.47
2022-08-05T04:55:09.594Z,2.53
2022-08-05T04:57:47.955Z,2.30
2022-08-05T05:00:23.398Z,2.28
2022-08-05T05:02:51.723Z,2.75
2022-08-05T05:05:28.301Z,2.22
2022-08-05T05:08:01.445Z,2.60
2022-08-05T05:10:30.197Z,2.45
2022-08-05T05:12:58.110Z,2.38
2022-08-05T05:15:54.255Z,2.28
2022-08-05T05:18:28.453Z,2.20
2022-08-05T05:21:03.255Z,2.10
2022-08-05T05:24:02.343Z,1.92
2022-08-05T05:26:19.650Z,1.70
2022-08-05T05:28:57.073Z,2.13
2022-08-05T05:31:25.193Z,1.85
2022-08-05T05:34:02.605Z,4.15
2022-08-05T05:36:32.950Z,2.13
2022-08-05T05:39:05.300Z,1.80
2022-08-05T05:41:40.832Z,1.83
2022-08-05T05:44:36.811Z,2.00
2022-08-05T05:46:58.330Z,1.75
2022-08-05T05:49:29.785Z,1.85
2022-08-05T05:51:58.717Z,2.13
2022-08-05T05:54:49.950Z,2.13
2022-08-05T05:57:19.306Z,1.63
2022-08-05T05:59:46.925Z,2.10
2022-08-05T06:02:16.417Z,2.10
2022-08-05T06:04:44.514Z,1.80
2022-08-05T06:07:22.517Z,1.88
2022-08-05T06:10:10.237Z,2.33
2022-08-05T06:12:42.091Z,2.17
2022-08-05T06:15:16.459Z,2.20
2022-08-05T06:17:53.569Z,1.90
2022-08-05T06:20:22.332Z,2.50
2022-08-05T06:22:51.225Z,2.25
2022-08-05T06:25:59.251Z,2.08
2022-08-05T06:28:12.386Z,2.28
2022-08-05T06:30:49.091Z,2.10
2022-08-05T06:33:19.401Z,1.95
2022-08-05T06:36:07.227Z,2.15
2022-08-05T06:38:37.047Z,1.83
2022-08-05T06:41:04.837Z,1.63
2022-08-05T06:43:57.506Z,1.80
2022-08-05T06:46:19.872Z,1.98
2022-08-05T06:48:58.785Z,1.80
2022-08-05T06:51:29.905Z,1.85
2022-08-05T06:53:59.845Z,1.63
2022-08-05T06:56:27.449Z,1.80
2022-08-05T06:58:55.008Z,1.70
2022-08-05T07:01:22.647Z,1.40
2022-08-05T07:03:50.430Z,1.58
2022-08-05T07:06:19.197Z,1.85
2022-08-05T07:08:54.736Z,1.80
2022-08-05T07:11:25.416Z,1.30
2022-08-05T07:14:15.336Z,2.00
2022-08-05T07:18:08.484Z,1.45
2022-08-05T07:22:28.406Z,1.23
2022-08-05T07:24:58.159Z,1.42
2022-08-05T07:27:27.678Z,1.35
2022-08-05T07:30:24.043Z,1.17
2022-08-05T07:32:58.125Z,1.00
2022-08-05T07:36:04.400Z,1.10
2022-08-05T07:38:32.122Z,1.00
2022-08-05T07:41:16.621Z,0.90
2022-08-05T07:43:50.410Z,0.82
2022-08-05T07:46:24.295Z,0.77
2022-08-05T07:49:02.554Z,0.80
2022-08-05T07:51:41.110Z,0.90
2022-08-05T07:54:23.180Z,0.90
2022-08-05T07:57:01.894Z,1.00
2022-08-05T07:59:42.636Z,1.30
2022-08-05T08:02:17.024Z,0.80
2022-08-05T08:04:49.642Z,1.08
2022-08-05T08:07:18.284Z,0.90
2022-08-05T08:09:52.516Z,1.08
2022-08-05T08:12:37.115Z,0.90
2022-08-05T08:15:15.450Z,1.10
2022-08-05T08:17:49.921Z,0.80
2022-08-05T08:20:43.784Z,1.08
2022-08-05T08:24:00.094Z,0.82
2022-08-05T08:26:00.146Z,0.90
2022-08-05T08:28:36.909Z,0.70
2022-08-05T08:31:19.304Z,0.75
2022-08-05T08:33:51.767Z,0.80
2022-08-05T08:36:38.873Z,0.82
2022-08-05T08:39:15.123Z,0.90
2022-08-05T08:41:52.511Z,0.80
2022-08-05T08:45:20.173Z,0.90
2022-08-05T08:47:21.966Z,0.82
2022-08-05T08:50:30.935Z,0.80
2022-08-05T08:53:01.886Z,0.70
2022-08-05T08:56:04.678Z,0.95
2022-08-05T08:58:37.198Z,0.80
2022-08-05T09:01:16.217Z,0.80
2022-08-05T09:03:47.572Z,0.90
2022-08-05T09:06:21.101Z,0.88
2022-08-05T09:08:51.681Z,0.77
2022-08-05T09:11:19.475Z,0.90
2022-08-05T09:14:53.859Z,1.30
2022-08-05T09:16:55.118Z,2.90
2022-08-05T09:19:36.194Z,1.10
2022-08-05T09:22:21.939Z,0.90
2022-08-05T09:24:58.060Z,0.98
2022-08-05T09:28:05.253Z,1.00
2022-08-05T09:30:23.334Z,1.00
2022-08-05T09:32:52.791Z,0.77
2022-08-05T09:35:27.330Z,0.93
2022-08-05T09:38:12.289Z,0.70
2022-08-05T09:40:51.820Z,1.10
2022-08-05T09:43:41.224Z,1.05
2022-08-05T09:46:27.613Z,2.00
2022-08-05T09:49:06.779Z,1.20
2022-08-05T09:51:39.966Z,1.92
2022-08-05T09:54:09.364Z,0.60
2022-08-05T09:56:38.260Z,0.70
2022-08-05T09:59:07.236Z,0.70
2022-08-05T10:01:36.984Z,0.57
2022-08-05T10:04:11.016Z,0.60
2022-08-05T10:06:41.453Z,0.60
2022-08-05T10:09:27.381Z,0.50
2022-08-05T10:12:30.530Z,0.35
2022-08-05T10:14:55.660Z,0.50
2022-08-05T10:17:38.050Z,0.85
2022-08-05T10:20:10.956Z,0.40
2022-08-05T10:22:43.168Z,0.60
2022-08-05T10:25:18.886Z,0.50
2022-08-05T10:28:12.960Z,0.50
2022-08-05T10:31:20.988Z,0.68
2022-08-05T10:33:24.960Z,0.70
2022-08-05T10:35:59.655Z,0.50
2022-08-05T10:38:33.073Z,0.50
2022-08-05T10:41:04.739Z,0.60
2022-08-05T10:43:41.350Z,0.50
2022-08-05T10:46:10.476Z,0.68
2022-08-05T10:48:52.622Z,0.52
2022-08-05T10:51:28.890Z,0.50
2022-08-05T10:54:00.954Z,0.50
2022-08-05T10:56:30.320Z,0.43
2022-08-05T11:00:02.011Z,0.50
2022-08-05T11:02:08.125Z,0.60
2022-08-05T11:04:44.631Z,0.55
2022-08-05T11:07:16.294Z,0.60
2022-08-05T11:09:48.823Z,0.73
2022-08-05T11:12:34.891Z,0.50
2022-08-05T11:15:19.046Z,0.50
2022-08-05T11:18:00.216Z,0.50
2022-08-05T11:20:51.087Z,0.60
2022-08-05T11:24:02.765Z,0.52
2022-08-05T11:26:29.085Z,0.50
2022-08-05T11:29:11.514Z,0.50
2022-08-05T11:31:57.341Z,0.50
2022-08-05T11:34:37.789Z,0.50
2022-08-05T11:38:14.259Z,0.50
2022-08-05T11:40:00.351Z,0.60
2022-08-05T11:42:37.894Z,0.73
2022-08-05T11:45:26.760Z,0.60
2022-08-05T11:47:56.154Z,0.70
2022-08-05T11:50:25.223Z,0.60
2022-08-05T11:52:57.535Z,0.60
2022-08-05T11:55:32.349Z,0.60
2022-08-05T11:58:10.689Z,0.60
2022-08-05T12:00:41.432Z,0.50
2022-08-05T12:03:29.651Z,0.60
2022-08-05T12:06:00.066Z,0.40
2022-08-05T12:08:27.638Z,0.60
2022-08-05T12:10:57.941Z,0.60
2022-08-05T12:13:47.675Z,0.60
2022-08-05T12:16:18.971Z,0.80
2022-08-05T12:18:49.305Z,0.68
2022-08-05T12:21:21.227Z,0.50
2022-08-05T12:23:54.698Z,0.52
2022-08-05T12:26:23.811Z,0.60
2022-08-05T12:28:52.929Z,0.60
2022-08-05T12:31:32.702Z,0.68
2022-08-05T12:34:09.097Z,0.52
2022-08-05T12:36:48.560Z,0.50
2022-08-05T12:39:17.610Z,0.77
2022-08-05T12:41:46.124Z,0.52
2022-08-05T12:44:21.682Z,0.50
2022-08-05T12:47:02.139Z,0.60
2022-08-05T12:50:01.964Z,0.60
2022-08-05T12:52:32.279Z,0.60
2022-08-05T12:55:16.927Z,0.70
2022-08-05T12:58:38.469Z,0.70
2022-08-05T13:02:00.874Z,0.68
2022-08-05T13:03:25.355Z,0.70
2022-08-05T13:06:01.032Z,0.60
2022-08-05T13:08:29.795Z,0.80
2022-08-05T13:11:00.526Z,0.75
2022-08-05T13:14:06.426Z,0.70
2022-08-05T13:16:19.518Z,0.60
2022-08-05T13:18:51.895Z,0.70
2022-08-05T13:21:19.423Z,0.70
2022-08-05T13:23:52.287Z,0.60
2022-08-05T13:26:24.063Z,0.77
2022-08-05T13:28:59.118Z,0.70
2022-08-05T13:32:02.804Z,0.68
2022-08-05T13:34:21.984Z,0.80
2022-08-05T13:36:52.988Z,0.70
2022-08-05T13:40:12.994Z,0.65
2022-08-05T13:42:14.695Z,0.70
2022-08-05T13:44:45.516Z,0.70
2022-08-05T13:47:35.008Z,0.70
2022-08-05T13:50:04.089Z,0.70
2022-08-05T13:52:35.602Z,0.70
2022-08-05T13:55:07.514Z,0.70
2022-08-05T13:57:51.088Z,0.80
2022-08-05T14:00:19.758Z,0.70
2022-08-05T14:02:56.850Z,0.77
2022-08-05T14:05:48.552Z,0.70
2022-08-05T14:08:21.224Z,0.70
2022-08-05T14:11:03.232Z,0.70
2022-08-05T14:13:43.085Z,0.60
2022-08-05T14:16:16.724Z,0.70
2022-08-05T14:18:46.140Z,0.80
2022-08-05T14:22:08.197Z,0.80
2022-08-05T14:24:01.116Z,0.80
2022-08-05T14:26:38.476Z,0.70
2022-08-05T14:29:15.889Z,0.60
2022-08-05T14:32:03.227Z,0.70
2022-08-05T14:34:35.242Z,0.73
2022-08-05T14:37:03.203Z,0.68
2022-08-05T14:39:31.625Z,0.70
2022-08-05T14:42:21.138Z,0.80
2022-08-05T14:44:49.147Z,0.90
2022-08-05T14:47:16.645Z,0.80
2022-08-05T14:50:17.709Z,0.70
2022-08-05T14:52:52.987Z,0.70
2022-08-05T14:55:20.836Z,0.90
2022-08-05T14:57:54.658Z,0.70
2022-08-05T15:00:28.230Z,0.70
2022-08-05T15:02:57.247Z,0.80
2022-08-05T15:05:29.843Z,0.77
2022-08-05T15:08:17.940Z,0.80
2022-08-05T15:11:03.287Z,1.00
2022-08-05T15:13:46.085Z,1.50
2022-08-05T15:16:17.809Z,1.00
2022-08-05T15:18:47.242Z,0.80
2022-08-05T15:21:16.285Z,1.13
2022-08-05T15:23:48.709Z,0.82
2022-08-05T15:26:17.469Z,1.00
2022-08-05T15:28:59.896Z,1.10
2022-08-05T15:31:34.893Z,0.80
2022-08-05T15:34:18.776Z,0.80
2022-08-05T15:36:51.496Z,0.90
2022-08-05T15:41:01.610Z,0.82
2022-08-05T15:42:54.186Z,0.98
2022-08-05T15:44:54.982Z,1.02
2022-08-05T15:47:23.681Z,1.20
2022-08-05T15:49:58.515Z,0.82
2022-08-05T15:52:52.060Z,1.50
2022-08-05T15:55:16.591Z,1.15
2022-08-05T15:57:45.065Z,4.57
2022-08-05T16:00:13.480Z,5.20
2022-08-05T16:02:44.763Z,1.35
2022-08-05T16:05:12.380Z,3.15
2022-08-05T16:07:46.618Z,2.17
2022-08-05T16:10:23.190Z,0.95
2022-08-05T16:12:53.179Z,0.80
2022-08-05T16:15:23.729Z,3.10
2022-08-05T16:17:57.556Z,4.03
2022-08-05T16:20:25.754Z,0.80
2022-08-05T16:22:57.499Z,0.90
2022-08-05T16:25:32.201Z,1.17
2022-08-05T16:28:05.641Z,2.15
2022-08-05T16:30:36.200Z,1.00
2022-08-05T16:33:04.088Z,1.27
2022-08-05T16:35:33.699Z,2.65
2022-08-05T16:38:24.005Z,1.75
2022-08-05T16:40:59.834Z,1.90
2022-08-05T16:43:28.865Z,1.10
2022-08-05T16:46:05.267Z,2.05
2022-08-05T16:48:35.909Z,1.50
2022-08-05T16:51:03.862Z,2.13
2022-08-05T16:54:05.770Z,5.45
2022-08-05T16:56:27.326Z,1.48
2022-08-05T16:58:54.907Z,1.70
2022-08-05T17:01:24.219Z,3.70
2022-08-05T17:03:52.257Z,2.53
2022-08-05T17:06:20.393Z,1.30
2022-08-05T17:08:54.582Z,2.40
2022-08-05T17:11:23.725Z,1.70
2022-08-05T17:14:00.189Z,2.30
2022-08-05T17:16:36.415Z,1.30
2022-08-05T17:19:07.278Z,1.60
2022-08-05T17:21:37.270Z,1.10
2022-08-05T17:24:19.348Z,5.75
2022-08-05T17:26:56.601Z,1.90
2022-08-05T17:29:33.855Z,4.07
2022-08-05T17:32:08.403Z,1.33
2022-08-05T17:34:38.790Z,1.20
2022-08-05T17:37:27.327Z,1.00
2022-08-05T17:39:55.998Z,2.00
2022-08-05T17:42:30.030Z,1.42
2022-08-05T17:45:00.368Z,1.75
2022-08-05T17:47:37.754Z,5.78
2022-08-05T17:50:10.671Z,2.08
2022-08-05T17:52:53.411Z,1.30
2022-08-05T17:55:34.333Z,1.50
2022-08-05T17:58:05.079Z,1.90
2022-08-05T18:00:35.510Z,2.20
2022-08-05T18:03:03.130Z,2.00
2022-08-05T18:05:35.535Z,5.40
2022-08-05T18:08:03.953Z,1.40
2022-08-05T18:10:33.729Z,4.97
2022-08-05T18:13:01.953Z,1.60
2022-08-05T18:15:36.218Z,1.98
2022-08-05T18:18:10.879Z,4.57
2022-08-05T18:20:39.161Z,1.92
2022-08-05T18:23:09.467Z,2.00
2022-08-05T18:25:45.328Z,2.08
2022-08-05T18:28:16.474Z,1.98
2022-08-05T18:30:44.603Z,1.42
2022-08-05T18:33:13.812Z,1.30
2022-08-05T18:36:00.773Z,2.17
2022-08-05T18:38:30.648Z,1.80
2022-08-05T18:41:57.138Z,1.98
2022-08-05T18:43:48.914Z,7.53
2022-08-05T18:46:19.842Z,2.45
2022-08-05T18:48:48.186Z,2.33
2022-08-05T18:52:06.598Z,1.52
2022-08-05T18:54:25.066Z,2.15
2022-08-05T18:56:53.966Z,2.08
2022-08-05T18:59:43.961Z,2.22
2022-08-05T19:02:11.236Z,5.00
2022-08-05T19:05:02.783Z,10.13
2022-08-05T19:07:45.936Z,2.47
2022-08-05T19:10:14.684Z,3.47
2022-08-05T19:12:43.735Z,3.75
2022-08-05T19:15:56.905Z,2.00
2022-08-05T19:18:10.297Z,3.70
2022-08-05T19:20:43.590Z,3.90
2022-08-05T19:24:04.255Z,3.35
2022-08-05T19:26:02.922Z,2.67
2022-08-05T19:28:32.920Z,9.70
2022-08-05T19:31:01.349Z,5.32
2022-08-05T19:33:36.294Z,3.72
2022-08-05T19:36:06.247Z,1.80
2022-08-05T19:38:35.937Z,2.75
2022-08-05T19:41:06.973Z,4.70
2022-08-05T19:44:05.327Z,2.88
2022-08-05T19:46:29.215Z,2.58
2022-08-05T19:49:00.878Z,2.70
2022-08-05T19:52:05.039Z,2.40
2022-08-05T19:54:21.950Z,2.75
2022-08-05T19:56:56.232Z,2.30
2022-08-05T19:59:54.966Z,3.22
2022-08-05T20:02:13.754Z,4.40
2022-08-05T20:04:43.255Z,5.18
2022-08-05T20:07:13.999Z,4.20
2022-08-05T20:09:53.958Z,4.07
2022-08-05T20:12:23.667Z,4.13
2022-08-05T20:14:53.272Z,4.45
2022-08-05T20:17:23.738Z,4.18
2022-08-05T20:19:56.733Z,4.03
2022-08-05T20:22:27.129Z,5.03
2022-08-05T20:24:55.374Z,4.75
2022-08-05T20:27:26.726Z,4.38
2022-08-05T20:29:57.578Z,4.82
2022-08-05T20:32:27.184Z,5.00
2022-08-05T20:34:55.180Z,5.53
2022-08-05T20:38:06.431Z,9.48
2022-08-05T20:40:10.970Z,6.38
2022-08-05T20:42:38.561Z,6.38
2022-08-05T20:45:09.275Z,5.82
2022-08-05T20:47:40.183Z,7.18
2022-08-05T20:50:08.583Z,5.90
2022-08-05T20:52:41.448Z,5.80
2022-08-05T20:55:54.399Z,5.65
2022-08-05T20:57:57.215Z,5.53
2022-08-05T21:00:49.741Z,8.18
2022-08-05T21:03:16.598Z,5.65
2022-08-05T21:05:54.397Z,5.45
2022-08-05T21:08:26.850Z,5.65
2022-08-05T21:11:10.219Z,7.30
2022-08-05T21:13:56.137Z,9.18
2022-08-05T21:16:29.938Z,8.13
2022-08-05T21:18:59.956Z,7.95
2022-08-05T21:21:39.882Z,8.15
2022-08-05T21:24:13.125Z,8.02
2022-08-05T21:26:41.683Z,8.57
2022-08-05T21:29:12.575Z,8.00
2022-08-05T21:31:45.927Z,8.82
2022-08-05T21:34:15.983Z,10.05
2022-08-05T21:36:43.575Z,9.25
2022-08-05T21:39:26.507Z,9.43
2022-08-05T21:42:01.152Z,8.88
2022-08-05T21:44:29.868Z,8.85
2022-08-05T21:46:58.891Z,8.95
2022-08-05T21:49:56.570Z,9.18
2022-08-05T21:52:21.457Z,8.07
2022-08-05T21:54:55.389Z,8.63
2022-08-05T21:57:32.061Z,8.68
2022-08-05T22:00:05.950Z,8.18
2022-08-05T22:02:35.858Z,8.52
2022-08-05T22:05:04.836Z,8.38
2022-08-05T22:07:39.977Z,8.77
2022-08-05T22:10:27.203Z,8.20
2022-08-05T22:12:55.371Z,8.80
2022-08-05T22:16:02.431Z,9.88
2022-08-05T22:18:14.677Z,8.77
2022-08-05T22:20:44.137Z,9.30
2022-08-05T22:24:03.330Z,9.43
2022-08-05T22:26:34.223Z,9.35
2022-08-05T22:29:03.006Z,8.65
2022-08-05T22:31:31.640Z,9.25
2022-08-05T22:34:25.473Z,10.15
2022-08-05T22:36:56.197Z,8.55
2022-08-05T22:39:32.547Z,8.63
2022-08-05T22:42:10.272Z,8.88
2022-08-05T22:44:39.529Z,9.85
2022-08-05T22:47:07.931Z,8.95
2022-08-05T22:50:19.552Z,10.10
2022-08-05T22:52:32.784Z,8.95
2022-08-05T22:55:02.045Z,8.93
2022-08-05T22:57:36.267Z,9.27
2022-08-05T23:00:05.191Z,9.30
2022-08-05T23:02:39.888Z,8.57
2022-08-05T23:05:15.347Z,8.95
2022-08-05T23:07:45.332Z,8.43
2022-08-05T23:10:19.592Z,7.80
2022-08-05T23:12:47.954Z,8.27
2022-08-05T23:15:19.855Z,8.18
2022-08-05T23:18:00.551Z,8.10
2022-08-05T23:20:30.891Z,6.57
2022-08-05T23:22:58.933Z,6.57
2022-08-05T23:25:52.963Z,7.20
2022-08-05T23:28:15.851Z,6.38
2022-08-05T23:30:53.361Z,5.95
2022-08-05T23:34:02.782Z,5.88
2022-08-05T23:36:13.521Z,4.68
2022-08-05T23:38:42.861Z,5.13
2022-08-05T23:41:11.050Z,4.57
2022-08-05T23:44:04.556Z,4.90
2022-08-05T23:46:26.412Z,4.07
2022-08-05T23:49:00.679Z,4.20
2022-08-05T23:51:52.621Z,3.90
2022-08-05T23:54:25.178Z,3.80
2022-08-05T23:56:54.181Z,2.70
2022-08-05T23:59:21.659Z,2.40
